sensor_id;sensor_type;location;lat;lon;timestamp;temperature;humidity
13462;DHT22;6803;45.264;5.468;2023-05-01T00:02:27;12.40;99.90
13462;DHT22;6803;45.264;5.468;2023-05-01T00:04:59;12.30;99.90
13462;DHT22;6803;45.264;5.468;2023-05-01T00:07:30;12.30;99.90
13462;DHT22;6803;45.264;5.468;2023-05-01T00:10:01;12.40;99.90
13462;DHT22;6803;45.264;5.468;2023-05-01T00:12:31;12.40;99.90
13462;DHT22;6803;45.264;5.468;2023-05-01T00:15:02;12.30;99.90
13462;DHT22;6803;45.264;5.468;2023-05-01T00:17:33;12.30;99.90
13462;DHT22;6803;45.264;5.468;2023-05-01T00:20:05;12.40;99.90
13462;DHT22;6803;45.264;5.468;2023-05-01T00:22:37;12.40;99.90
13462;DHT22;6803;45.264;5.468;2023-05-01T00:25:08;12.40;99.90
13462;DHT22;6803;45.264;5.468;2023-05-01T00:27:39;12.40;99.90
13462;DHT22;6803;45.264;5.468;2023-05-01T00:30:11;12.30;99.90
13462;DHT22;6803;45.264;5.468;2023-05-01T00:32:42;12.20;99.90
13462;DHT22;6803;45.264;5.468;2023-05-01T00:35:13;12.20;99.90
13462;DHT22;6803;45.264;5.468;2023-05-01T00:37:44;12.20;99.90
13462;DHT22;6803;45.264;5.468;2023-05-01T00:40:16;12.30;99.90
13462;DHT22;6803;45.264;5.468;2023-05-01T00:42:47;12.30;99.90
13462;DHT22;6803;45.264;5.468;2023-05-01T00:45:18;12.20;99.90
13462;DHT22;6803;45.264;5.468;2023-05-01T00:47:49;12.30;99.90
13462;DHT22;6803;45.264;5.468;2023-05-01T00:50:20;12.30;99.90
13462;DHT22;6803;45.264;5.468;2023-05-01T00:52:51;12.40;99.90
13462;DHT22;6803;45.264;5.468;2023-05-01T00:55:22;12.40;99.90
13462;DHT22;6803;45.264;5.468;2023-05-01T00:57:54;12.50;99.90
13462;DHT22;6803;45.264;5.468;2023-05-01T01:00:25;12.50;99.90
13462;DHT22;6803;45.264;5.468;2023-05-01T01:02:57;12.50;99.90
13462;DHT22;6803;45.264;5.468;2023-05-01T01:05:29;12.40;99.90
13462;DHT22;6803;45.264;5.468;2023-05-01T01:08:08;12.50;99.90
13462;DHT22;6803;45.264;5.468;2023-05-01T01:10:42;12.50;99.90
13462;DHT22;6803;45.264;5.468;2023-05-01T01:13:16;12.50;99.90
13462;DHT22;6803;45.264;5.468;2023-05-01T01:15:49;12.40;99.90
13462;DHT22;6803;45.264;5.468;2023-05-01T01:18:23;12.40;99.90
13462;DHT22;6803;45.264;5.468;2023-05-01T01:20:58;12.40;99.90
13462;DHT22;6803;45.264;5.468;2023-05-01T01:27:00;12.60;99.90
13462;DHT22;6803;45.264;5.468;2023-05-01T01:29:48;12.60;99.90
13462;DHT22;6803;45.264;5.468;2023-05-01T01:32:31;12.60;99.90
13462;DHT22;6803;45.264;5.468;2023-05-01T01:35:05;12.60;99.90
13462;DHT22;6803;45.264;5.468;2023-05-01T01:37:40;12.50;99.90
13462;DHT22;6803;45.264;5.468;2023-05-01T01:40:14;12.50;99.90
13462;DHT22;6803;45.264;5.468;2023-05-01T01:42:50;12.50;99.90
13462;DHT22;6803;45.264;5.468;2023-05-01T01:45:22;12.50;99.90
13462;DHT22;6803;45.264;5.468;2023-05-01T01:47:54;12.40;99.90
13462;DHT22;6803;45.264;5.468;2023-05-01T01:50:26;12.50;99.90
13462;DHT22;6803;45.264;5.468;2023-05-01T01:52:59;12.50;99.90
13462;DHT22;6803;45.264;5.468;2023-05-01T01:55:33;12.50;99.90
13462;DHT22;6803;45.264;5.468;2023-05-01T01:58:07;12.50;99.90
13462;DHT22;6803;45.264;5.468;2023-05-01T02:00:39;12.50;99.90
13462;DHT22;6803;45.264;5.468;2023-05-01T02:03:11;12.60;99.90
13462;DHT22;6803;45.264;5.468;2023-05-01T02:05:43;12.60;99.90
13462;DHT22;6803;45.264;5.468;2023-05-01T02:08:16;12.60;99.90
13462;DHT22;6803;45.264;5.468;2023-05-01T02:10:52;12.60;99.90
13462;DHT22;6803;45.264;5.468;2023-05-01T02:13:49;12.60;99.90
13462;DHT22;6803;45.264;5.468;2023-05-01T02:16:22;12.70;99.90
13462;DHT22;6803;45.264;5.468;2023-05-01T02:18:55;12.70;99.90
13462;DHT22;6803;45.264;5.468;2023-05-01T02:21:27;12.80;99.90
13462;DHT22;6803;45.264;5.468;2023-05-01T02:24:01;12.80;99.90
13462;DHT22;6803;45.264;5.468;2023-05-01T02:26:34;12.70;99.90
13462;DHT22;6803;45.264;5.468;2023-05-01T02:29:06;12.80;99.90
13462;DHT22;6803;45.264;5.468;2023-05-01T02:31:37;12.80;99.90
13462;DHT22;6803;45.264;5.468;2023-05-01T02:34:08;12.80;99.90
13462;DHT22;6803;45.264;5.468;2023-05-01T02:36:39;12.80;99.90
13462;DHT22;6803;45.264;5.468;2023-05-01T02:39:11;12.80;99.90
13462;DHT22;6803;45.264;5.468;2023-05-01T02:41:42;12.90;99.90
13462;DHT22;6803;45.264;5.468;2023-05-01T02:44:14;12.90;99.90
13462;DHT22;6803;45.264;5.468;2023-05-01T02:46:47;12.80;99.90
13462;DHT22;6803;45.264;5.468;2023-05-01T02:49:18;12.90;99.90
13462;DHT22;6803;45.264;5.468;2023-05-01T02:51:50;12.80;99.90
13462;DHT22;6803;45.264;5.468;2023-05-01T02:54:22;12.80;99.90
13462;DHT22;6803;45.264;5.468;2023-05-01T02:56:53;12.90;99.90
13462;DHT22;6803;45.264;5.468;2023-05-01T02:59:26;12.80;99.90
13462;DHT22;6803;45.264;5.468;2023-05-01T03:01:56;12.80;99.90
13462;DHT22;6803;45.264;5.468;2023-05-01T03:04:28;12.90;99.90
13462;DHT22;6803;45.264;5.468;2023-05-01T03:06:59;12.80;99.90
13462;DHT22;6803;45.264;5.468;2023-05-01T03:09:29;12.80;99.90
13462;DHT22;6803;45.264;5.468;2023-05-01T03:12:00;12.80;99.90
13462;DHT22;6803;45.264;5.468;2023-05-01T03:14:31;12.90;99.90
13462;DHT22;6803;45.264;5.468;2023-05-01T03:17:02;12.90;99.90
13462;DHT22;6803;45.264;5.468;2023-05-01T03:19:33;12.80;99.90
13462;DHT22;6803;45.264;5.468;2023-05-01T03:22:05;12.80;99.90
13462;DHT22;6803;45.264;5.468;2023-05-01T03:24:35;12.80;99.90
13462;DHT22;6803;45.264;5.468;2023-05-01T03:27:06;12.80;99.90
13462;DHT22;6803;45.264;5.468;2023-05-01T03:29:37;12.90;99.90
13462;DHT22;6803;45.264;5.468;2023-05-01T03:32:07;12.80;99.90
13462;DHT22;6803;45.264;5.468;2023-05-01T03:34:38;12.80;99.90
13462;DHT22;6803;45.264;5.468;2023-05-01T03:37:09;12.80;99.90
13462;DHT22;6803;45.264;5.468;2023-05-01T03:39:40;12.80;99.90
13462;DHT22;6803;45.264;5.468;2023-05-01T03:42:11;12.80;99.90
13462;DHT22;6803;45.264;5.468;2023-05-01T03:44:42;12.80;99.90
13462;DHT22;6803;45.264;5.468;2023-05-01T03:47:13;12.80;99.90
13462;DHT22;6803;45.264;5.468;2023-05-01T03:49:44;12.70;99.90
13462;DHT22;6803;45.264;5.468;2023-05-01T03:52:16;12.70;99.90
13462;DHT22;6803;45.264;5.468;2023-05-01T03:54:46;12.70;99.90
13462;DHT22;6803;45.264;5.468;2023-05-01T03:57:18;12.80;99.90
13462;DHT22;6803;45.264;5.468;2023-05-01T03:59:51;12.80;99.90
13462;DHT22;6803;45.264;5.468;2023-05-01T04:02:23;12.80;99.90
13462;DHT22;6803;45.264;5.468;2023-05-01T04:04:54;12.80;99.90
13462;DHT22;6803;45.264;5.468;2023-05-01T04:07:25;12.80;99.90
13462;DHT22;6803;45.264;5.468;2023-05-01T04:09:56;12.80;99.90
13462;DHT22;6803;45.264;5.468;2023-05-01T04:12:27;12.70;99.90
13462;DHT22;6803;45.264;5.468;2023-05-01T04:14:57;12.80;99.90
13462;DHT22;6803;45.264;5.468;2023-05-01T04:17:28;12.90;99.90
13462;DHT22;6803;45.264;5.468;2023-05-01T04:19:59;12.80;99.90
13462;DHT22;6803;45.264;5.468;2023-05-01T04:22:31;12.80;99.90
13462;DHT22;6803;45.264;5.468;2023-05-01T04:25:01;12.90;99.90
13462;DHT22;6803;45.264;5.468;2023-05-01T04:27:33;12.90;99.90
13462;DHT22;6803;45.264;5.468;2023-05-01T04:30:04;12.80;99.90
13462;DHT22;6803;45.264;5.468;2023-05-01T04:32:35;12.80;99.90
13462;DHT22;6803;45.264;5.468;2023-05-01T04:35:08;12.90;99.90
13462;DHT22;6803;45.264;5.468;2023-05-01T04:37:40;12.90;99.90
13462;DHT22;6803;45.264;5.468;2023-05-01T04:40:12;12.90;99.90
13462;DHT22;6803;45.264;5.468;2023-05-01T04:42:43;12.90;99.90
13462;DHT22;6803;45.264;5.468;2023-05-01T04:45:14;12.80;99.90
13462;DHT22;6803;45.264;5.468;2023-05-01T04:47:45;12.80;99.90
13462;DHT22;6803;45.264;5.468;2023-05-01T04:50:16;12.80;99.90
13462;DHT22;6803;45.264;5.468;2023-05-01T04:52:46;12.80;99.90
13462;DHT22;6803;45.264;5.468;2023-05-01T04:55:17;12.80;99.90
13462;DHT22;6803;45.264;5.468;2023-05-01T04:57:48;12.80;99.90
13462;DHT22;6803;45.264;5.468;2023-05-01T05:00:19;12.80;99.90
13462;DHT22;6803;45.264;5.468;2023-05-01T05:02:50;12.70;99.90
13462;DHT22;6803;45.264;5.468;2023-05-01T05:05:20;12.70;99.90
13462;DHT22;6803;45.264;5.468;2023-05-01T05:07:51;12.80;99.90
13462;DHT22;6803;45.264;5.468;2023-05-01T05:10:21;12.80;99.90
13462;DHT22;6803;45.264;5.468;2023-05-01T05:12:52;12.70;99.90
13462;DHT22;6803;45.264;5.468;2023-05-01T05:15:23;12.60;99.90
13462;DHT22;6803;45.264;5.468;2023-05-01T05:17:54;12.70;99.90
13462;DHT22;6803;45.264;5.468;2023-05-01T05:20:25;12.70;99.90
13462;DHT22;6803;45.264;5.468;2023-05-01T05:22:56;12.60;99.90
13462;DHT22;6803;45.264;5.468;2023-05-01T05:25:27;12.60;99.90
13462;DHT22;6803;45.264;5.468;2023-05-01T05:27:57;12.60;99.90
13462;DHT22;6803;45.264;5.468;2023-05-01T05:30:28;12.70;99.90
13462;DHT22;6803;45.264;5.468;2023-05-01T05:32:59;12.70;99.90
13462;DHT22;6803;45.264;5.468;2023-05-01T05:35:30;12.70;99.90
13462;DHT22;6803;45.264;5.468;2023-05-01T05:38:00;12.60;99.90
13462;DHT22;6803;45.264;5.468;2023-05-01T05:40:31;12.60;99.90
13462;DHT22;6803;45.264;5.468;2023-05-01T05:43:02;12.60;99.90
13462;DHT22;6803;45.264;5.468;2023-05-01T05:45:34;12.60;99.90
13462;DHT22;6803;45.264;5.468;2023-05-01T05:48:05;12.60;99.90
13462;DHT22;6803;45.264;5.468;2023-05-01T05:50:36;12.60;99.90
13462;DHT22;6803;45.264;5.468;2023-05-01T05:53:06;12.60;99.90
13462;DHT22;6803;45.264;5.468;2023-05-01T05:55:38;12.60;99.90
13462;DHT22;6803;45.264;5.468;2023-05-01T06:00:48;12.60;99.90
13462;DHT22;6803;45.264;5.468;2023-05-01T06:03:21;12.70;99.90
13462;DHT22;6803;45.264;5.468;2023-05-01T06:08:31;12.60;99.90
13462;DHT22;6803;45.264;5.468;2023-05-01T06:11:04;12.50;99.90
13462;DHT22;6803;45.264;5.468;2023-05-01T06:13:35;12.60;99.90
13462;DHT22;6803;45.264;5.468;2023-05-01T06:16:07;12.60;99.90
13462;DHT22;6803;45.264;5.468;2023-05-01T06:18:39;12.60;99.90
13462;DHT22;6803;45.264;5.468;2023-05-01T06:21:12;12.60;99.90
13462;DHT22;6803;45.264;5.468;2023-05-01T06:23:43;12.70;99.90
13462;DHT22;6803;45.264;5.468;2023-05-01T06:26:13;12.70;99.90
13462;DHT22;6803;45.264;5.468;2023-05-01T06:28:44;12.70;99.90
13462;DHT22;6803;45.264;5.468;2023-05-01T06:31:15;12.70;99.90
13462;DHT22;6803;45.264;5.468;2023-05-01T06:33:46;12.70;99.90
13462;DHT22;6803;45.264;5.468;2023-05-01T06:36:17;12.70;99.90
13462;DHT22;6803;45.264;5.468;2023-05-01T06:38:49;12.70;99.90
13462;DHT22;6803;45.264;5.468;2023-05-01T06:41:20;12.70;99.90
13462;DHT22;6803;45.264;5.468;2023-05-01T06:43:51;12.70;99.90
13462;DHT22;6803;45.264;5.468;2023-05-01T06:46:23;12.60;99.90
13462;DHT22;6803;45.264;5.468;2023-05-01T06:48:54;12.50;99.90
13462;DHT22;6803;45.264;5.468;2023-05-01T06:51:25;12.60;99.90
13462;DHT22;6803;45.264;5.468;2023-05-01T06:53:56;12.50;99.90
13462;DHT22;6803;45.264;5.468;2023-05-01T06:56:28;12.50;99.90
13462;DHT22;6803;45.264;5.468;2023-05-01T06:59:00;12.60;99.90
13462;DHT22;6803;45.264;5.468;2023-05-01T07:01:31;12.60;99.90
13462;DHT22;6803;45.264;5.468;2023-05-01T07:04:04;12.70;99.90
13462;DHT22;6803;45.264;5.468;2023-05-01T07:06:35;12.70;99.90
13462;DHT22;6803;45.264;5.468;2023-05-01T07:09:06;12.80;99.90
13462;DHT22;6803;45.264;5.468;2023-05-01T07:11:37;12.80;99.90
13462;DHT22;6803;45.264;5.468;2023-05-01T07:14:07;12.80;99.90
13462;DHT22;6803;45.264;5.468;2023-05-01T07:16:39;12.80;99.90
13462;DHT22;6803;45.264;5.468;2023-05-01T07:19:11;12.90;99.90
13462;DHT22;6803;45.264;5.468;2023-05-01T07:21:42;12.90;99.90
13462;DHT22;6803;45.264;5.468;2023-05-01T07:24:13;12.90;99.90
13462;DHT22;6803;45.264;5.468;2023-05-01T07:26:45;13.00;99.90
13462;DHT22;6803;45.264;5.468;2023-05-01T07:29:16;12.90;99.90
13462;DHT22;6803;45.264;5.468;2023-05-01T07:31:47;13.00;99.90
13462;DHT22;6803;45.264;5.468;2023-05-01T07:34:18;13.00;99.90
13462;DHT22;6803;45.264;5.468;2023-05-01T07:36:49;13.00;99.90
13462;DHT22;6803;45.264;5.468;2023-05-01T07:39:21;13.10;99.90
13462;DHT22;6803;45.264;5.468;2023-05-01T07:41:52;13.10;99.90
13462;DHT22;6803;45.264;5.468;2023-05-01T07:44:23;13.10;99.90
13462;DHT22;6803;45.264;5.468;2023-05-01T07:46:54;13.00;99.90
13462;DHT22;6803;45.264;5.468;2023-05-01T07:49:25;13.00;99.90
13462;DHT22;6803;45.264;5.468;2023-05-01T07:51:55;13.00;99.90
13462;DHT22;6803;45.264;5.468;2023-05-01T07:54:26;13.00;99.90
13462;DHT22;6803;45.264;5.468;2023-05-01T07:56:57;13.00;99.90
13462;DHT22;6803;45.264;5.468;2023-05-01T07:59:28;13.10;99.90
13462;DHT22;6803;45.264;5.468;2023-05-01T08:01:59;13.10;99.90
13462;DHT22;6803;45.264;5.468;2023-05-01T08:04:29;13.10;99.90
13462;DHT22;6803;45.264;5.468;2023-05-01T08:07:02;13.00;99.90
13462;DHT22;6803;45.264;5.468;2023-05-01T08:09:32;13.10;99.90
13462;DHT22;6803;45.264;5.468;2023-05-01T08:12:04;13.10;99.90
13462;DHT22;6803;45.264;5.468;2023-05-01T08:14:36;13.10;99.90
13462;DHT22;6803;45.264;5.468;2023-05-01T08:17:08;13.20;99.90
13462;DHT22;6803;45.264;5.468;2023-05-01T08:19:41;13.20;99.90
13462;DHT22;6803;45.264;5.468;2023-05-01T08:22:12;13.30;99.90
13462;DHT22;6803;45.264;5.468;2023-05-01T08:24:42;13.30;99.90
13462;DHT22;6803;45.264;5.468;2023-05-01T08:27:13;13.40;99.90
13462;DHT22;6803;45.264;5.468;2023-05-01T08:29:44;13.40;99.90
13462;DHT22;6803;45.264;5.468;2023-05-01T08:32:15;13.40;99.90
13462;DHT22;6803;45.264;5.468;2023-05-01T08:34:46;13.40;99.90
13462;DHT22;6803;45.264;5.468;2023-05-01T08:37:17;13.30;99.90
13462;DHT22;6803;45.264;5.468;2023-05-01T08:39:48;13.40;99.90
13462;DHT22;6803;45.264;5.468;2023-05-01T08:42:19;13.30;99.90
13462;DHT22;6803;45.264;5.468;2023-05-01T08:44:51;13.30;99.90
13462;DHT22;6803;45.264;5.468;2023-05-01T08:47:24;13.20;99.90
13462;DHT22;6803;45.264;5.468;2023-05-01T08:49:56;13.30;99.90
13462;DHT22;6803;45.264;5.468;2023-05-01T08:52:29;13.40;99.90
13462;DHT22;6803;45.264;5.468;2023-05-01T08:55:00;13.40;99.90
13462;DHT22;6803;45.264;5.468;2023-05-01T09:00:13;13.60;99.90
13462;DHT22;6803;45.264;5.468;2023-05-01T09:02:46;13.50;99.90
13462;DHT22;6803;45.264;5.468;2023-05-01T09:05:19;13.60;99.90
13462;DHT22;6803;45.264;5.468;2023-05-01T09:07:50;13.60;99.90
13462;DHT22;6803;45.264;5.468;2023-05-01T09:10:21;13.60;99.90
13462;DHT22;6803;45.264;5.468;2023-05-01T09:12:55;13.70;99.90
13462;DHT22;6803;45.264;5.468;2023-05-01T09:15:29;13.70;99.90
13462;DHT22;6803;45.264;5.468;2023-05-01T09:18:01;13.70;99.90
13462;DHT22;6803;45.264;5.468;2023-05-01T09:20:32;13.70;99.90
13462;DHT22;6803;45.264;5.468;2023-05-01T09:23:05;13.70;99.90
13462;DHT22;6803;45.264;5.468;2023-05-01T09:25:35;13.70;99.90
13462;DHT22;6803;45.264;5.468;2023-05-01T09:30:43;14.00;99.90
13462;DHT22;6803;45.264;5.468;2023-05-01T09:33:15;14.00;99.90
13462;DHT22;6803;45.264;5.468;2023-05-01T09:35:50;13.90;99.90
13462;DHT22;6803;45.264;5.468;2023-05-01T09:38:22;13.90;99.90
13462;DHT22;6803;45.264;5.468;2023-05-01T09:41:03;14.10;99.90
13462;DHT22;6803;45.264;5.468;2023-05-01T09:43:28;14.10;99.90
13462;DHT22;6803;45.264;5.468;2023-05-01T09:46:01;14.20;99.90
13462;DHT22;6803;45.264;5.468;2023-05-01T09:48:34;14.30;99.90
13462;DHT22;6803;45.264;5.468;2023-05-01T09:51:21;14.50;99.90
13462;DHT22;6803;45.264;5.468;2023-05-01T09:53:53;14.60;99.90
13462;DHT22;6803;45.264;5.468;2023-05-01T09:56:26;14.60;99.90
13462;DHT22;6803;45.264;5.468;2023-05-01T09:58:58;14.50;99.90
13462;DHT22;6803;45.264;5.468;2023-05-01T10:01:43;14.50;99.90
13462;DHT22;6803;45.264;5.468;2023-05-01T10:06:51;14.70;99.90
13462;DHT22;6803;45.264;5.468;2023-05-01T10:09:28;14.70;99.90
13462;DHT22;6803;45.264;5.468;2023-05-01T10:11:59;14.70;99.90
13462;DHT22;6803;45.264;5.468;2023-05-01T10:14:30;14.70;99.90
13462;DHT22;6803;45.264;5.468;2023-05-01T10:17:09;14.70;99.90
13462;DHT22;6803;45.264;5.468;2023-05-01T10:22:20;14.90;99.90
13462;DHT22;6803;45.264;5.468;2023-05-01T10:24:51;15.10;99.90
13462;DHT22;6803;45.264;5.468;2023-05-01T10:27:24;15.00;99.90
13462;DHT22;6803;45.264;5.468;2023-05-01T10:29:56;15.00;99.90
13462;DHT22;6803;45.264;5.468;2023-05-01T10:32:29;15.00;99.90
13462;DHT22;6803;45.264;5.468;2023-05-01T10:35:11;15.20;99.90
13462;DHT22;6803;45.264;5.468;2023-05-01T10:37:38;15.20;99.90
13462;DHT22;6803;45.264;5.468;2023-05-01T10:43:24;15.30;99.90
13462;DHT22;6803;45.264;5.468;2023-05-01T10:46:28;15.20;99.90
13462;DHT22;6803;45.264;5.468;2023-05-01T10:48:59;15.20;99.90
13462;DHT22;6803;45.264;5.468;2023-05-01T10:51:30;15.10;99.90
13462;DHT22;6803;45.264;5.468;2023-05-01T10:54:23;15.10;99.90
13462;DHT22;6803;45.264;5.468;2023-05-01T10:56:56;14.90;99.90
13462;DHT22;6803;45.264;5.468;2023-05-01T10:59:28;14.90;99.90
13462;DHT22;6803;45.264;5.468;2023-05-01T11:04:48;15.10;99.90
13462;DHT22;6803;45.264;5.468;2023-05-01T11:07:22;15.30;99.90
13462;DHT22;6803;45.264;5.468;2023-05-01T11:09:55;15.30;99.90
13462;DHT22;6803;45.264;5.468;2023-05-01T11:12:48;15.30;99.90
13462;DHT22;6803;45.264;5.468;2023-05-01T11:18:03;15.30;99.90
13462;DHT22;6803;45.264;5.468;2023-05-01T11:20:51;15.30;99.90
13462;DHT22;6803;45.264;5.468;2023-05-01T11:23:23;15.30;99.90
13462;DHT22;6803;45.264;5.468;2023-05-01T11:26:03;15.30;99.90
13462;DHT22;6803;45.264;5.468;2023-05-01T11:28:34;15.20;99.90
13462;DHT22;6803;45.264;5.468;2023-05-01T11:31:06;15.30;99.90
13462;DHT22;6803;45.264;5.468;2023-05-01T11:33:39;15.20;99.90
13462;DHT22;6803;45.264;5.468;2023-05-01T11:36:10;15.10;99.90
13462;DHT22;6803;45.264;5.468;2023-05-01T11:38:50;14.90;99.90
13462;DHT22;6803;45.264;5.468;2023-05-01T11:41:22;14.70;99.90
13462;DHT22;6803;45.264;5.468;2023-05-01T11:43:54;14.80;99.90
13462;DHT22;6803;45.264;5.468;2023-05-01T11:46:26;15.00;99.90
13462;DHT22;6803;45.264;5.468;2023-05-01T11:48:59;15.30;99.90
13462;DHT22;6803;45.264;5.468;2023-05-01T11:51:31;15.20;99.90
13462;DHT22;6803;45.264;5.468;2023-05-01T11:54:04;15.50;99.90
13462;DHT22;6803;45.264;5.468;2023-05-01T11:56:36;15.70;99.90
13462;DHT22;6803;45.264;5.468;2023-05-01T12:01:48;17.60;99.90
13462;DHT22;6803;45.264;5.468;2023-05-01T12:04:25;16.90;99.90
13462;DHT22;6803;45.264;5.468;2023-05-01T12:06:58;17.50;99.90
13462;DHT22;6803;45.264;5.468;2023-05-01T12:09:29;18.30;99.90
13462;DHT22;6803;45.264;5.468;2023-05-01T12:12:00;18.70;99.90
13462;DHT22;6803;45.264;5.468;2023-05-01T12:17:08;19.10;99.90
13462;DHT22;6803;45.264;5.468;2023-05-01T12:19:49;18.30;99.90
13462;DHT22;6803;45.264;5.468;2023-05-01T12:22:22;18.60;99.90
13462;DHT22;6803;45.264;5.468;2023-05-01T12:24:54;18.60;99.90
13462;DHT22;6803;45.264;5.468;2023-05-01T12:27:26;18.10;99.90
13462;DHT22;6803;45.264;5.468;2023-05-01T12:29:57;17.60;99.90
13462;DHT22;6803;45.264;5.468;2023-05-01T12:32:32;17.40;99.90
13462;DHT22;6803;45.264;5.468;2023-05-01T12:35:14;17.40;99.90
13462;DHT22;6803;45.264;5.468;2023-05-01T12:37:46;16.90;99.90
13462;DHT22;6803;45.264;5.468;2023-05-01T12:40:20;16.50;99.90
13462;DHT22;6803;45.264;5.468;2023-05-01T12:42:57;16.30;99.90
13462;DHT22;6803;45.264;5.468;2023-05-01T12:45:28;16.10;99.90
13462;DHT22;6803;45.264;5.468;2023-05-01T12:48:00;15.80;99.90
13462;DHT22;6803;45.264;5.468;2023-05-01T12:50:35;15.60;99.90
13462;DHT22;6803;45.264;5.468;2023-05-01T12:53:06;15.30;99.90
13462;DHT22;6803;45.264;5.468;2023-05-01T12:55:48;15.40;99.90
13462;DHT22;6803;45.264;5.468;2023-05-01T12:58:20;15.90;99.90
13462;DHT22;6803;45.264;5.468;2023-05-01T13:00:52;16.20;99.90
13462;DHT22;6803;45.264;5.468;2023-05-01T13:03:24;16.00;99.90
13462;DHT22;6803;45.264;5.468;2023-05-01T13:06:14;16.50;99.90
13462;DHT22;6803;45.264;5.468;2023-05-01T13:08:46;16.10;99.90
13462;DHT22;6803;45.264;5.468;2023-05-01T13:11:19;16.20;99.90
13462;DHT22;6803;45.264;5.468;2023-05-01T13:13:55;16.60;99.90
13462;DHT22;6803;45.264;5.468;2023-05-01T13:16:30;16.60;99.90
13462;DHT22;6803;45.264;5.468;2023-05-01T13:19:02;16.80;99.90
13462;DHT22;6803;45.264;5.468;2023-05-01T13:21:51;16.50;99.90
13462;DHT22;6803;45.264;5.468;2023-05-01T13:27:03;16.70;99.90
13462;DHT22;6803;45.264;5.468;2023-05-01T13:29:41;16.50;99.90
13462;DHT22;6803;45.264;5.468;2023-05-01T13:32:16;16.60;99.90
13462;DHT22;6803;45.264;5.468;2023-05-01T13:34:55;17.20;99.90
13462;DHT22;6803;45.264;5.468;2023-05-01T13:37:36;17.80;99.90
13462;DHT22;6803;45.264;5.468;2023-05-01T13:40:16;17.70;99.90
13462;DHT22;6803;45.264;5.468;2023-05-01T13:42:54;17.80;99.90
13462;DHT22;6803;45.264;5.468;2023-05-01T13:45:28;17.60;99.90
13462;DHT22;6803;45.264;5.468;2023-05-01T13:48:03;17.20;99.90
13462;DHT22;6803;45.264;5.468;2023-05-01T13:50:39;17.00;99.90
13462;DHT22;6803;45.264;5.468;2023-05-01T13:53:15;16.40;99.90
13462;DHT22;6803;45.264;5.468;2023-05-01T13:55:48;16.10;99.90
13462;DHT22;6803;45.264;5.468;2023-05-01T13:58:21;16.10;99.90
13462;DHT22;6803;45.264;5.468;2023-05-01T14:00:58;16.90;99.90
13462;DHT22;6803;45.264;5.468;2023-05-01T14:06:14;16.70;99.90
13462;DHT22;6803;45.264;5.468;2023-05-01T14:08:49;15.90;99.90
13462;DHT22;6803;45.264;5.468;2023-05-01T14:11:23;15.70;99.90
13462;DHT22;6803;45.264;5.468;2023-05-01T14:13:58;15.40;99.90
13462;DHT22;6803;45.264;5.468;2023-05-01T14:16:30;15.80;99.90
13462;DHT22;6803;45.264;5.468;2023-05-01T14:19:04;17.30;99.90
13462;DHT22;6803;45.264;5.468;2023-05-01T14:21:43;17.90;99.90
13462;DHT22;6803;45.264;5.468;2023-05-01T14:24:16;18.60;99.90
13462;DHT22;6803;45.264;5.468;2023-05-01T14:26:52;18.20;99.90
13462;DHT22;6803;45.264;5.468;2023-05-01T14:29:27;17.40;99.90
13462;DHT22;6803;45.264;5.468;2023-05-01T14:32:04;15.70;99.90
13462;DHT22;6803;45.264;5.468;2023-05-01T14:34:36;15.00;99.90
13462;DHT22;6803;45.264;5.468;2023-05-01T14:37:14;15.10;99.90
13462;DHT22;6803;45.264;5.468;2023-05-01T14:39:46;15.00;99.90
13462;DHT22;6803;45.264;5.468;2023-05-01T14:44:54;16.10;99.90
13462;DHT22;6803;45.264;5.468;2023-05-01T14:47:26;16.00;99.90
13462;DHT22;6803;45.264;5.468;2023-05-01T14:49:57;15.50;99.90
13462;DHT22;6803;45.264;5.468;2023-05-01T14:52:28;15.60;99.90
13462;DHT22;6803;45.264;5.468;2023-05-01T14:54:59;16.50;99.90
13462;DHT22;6803;45.264;5.468;2023-05-01T14:57:30;17.40;99.90
13462;DHT22;6803;45.264;5.468;2023-05-01T15:00:01;17.70;99.90
13462;DHT22;6803;45.264;5.468;2023-05-01T15:05:11;17.80;99.90
13462;DHT22;6803;45.264;5.468;2023-05-01T15:07:42;18.40;99.90
13462;DHT22;6803;45.264;5.468;2023-05-01T15:10:13;18.30;99.90
13462;DHT22;6803;45.264;5.468;2023-05-01T15:12:44;19.30;99.90
13462;DHT22;6803;45.264;5.468;2023-05-01T15:15:16;19.20;99.90
13462;DHT22;6803;45.264;5.468;2023-05-01T15:17:46;19.10;99.90
13462;DHT22;6803;45.264;5.468;2023-05-01T15:22:56;18.20;99.90
13462;DHT22;6803;45.264;5.468;2023-05-01T15:25:26;18.40;99.90
13462;DHT22;6803;45.264;5.468;2023-05-01T15:27:59;18.30;99.90
13462;DHT22;6803;45.264;5.468;2023-05-01T15:30:30;18.00;99.90
13462;DHT22;6803;45.264;5.468;2023-05-01T15:33:02;18.30;99.90
13462;DHT22;6803;45.264;5.468;2023-05-01T15:35:33;19.70;99.90
13462;DHT22;6803;45.264;5.468;2023-05-01T15:38:03;19.70;99.90
13462;DHT22;6803;45.264;5.468;2023-05-01T15:40:34;20.20;99.90
13462;DHT22;6803;45.264;5.468;2023-05-01T15:43:05;19.80;99.90
13462;DHT22;6803;45.264;5.468;2023-05-01T15:45:36;19.90;99.90
13462;DHT22;6803;45.264;5.468;2023-05-01T15:48:09;20.20;99.90
13462;DHT22;6803;45.264;5.468;2023-05-01T15:50:40;20.20;99.90
13462;DHT22;6803;45.264;5.468;2023-05-01T15:53:11;20.00;99.90
13462;DHT22;6803;45.264;5.468;2023-05-01T15:55:41;19.30;99.90
13462;DHT22;6803;45.264;5.468;2023-05-01T16:00:49;18.20;99.90
13462;DHT22;6803;45.264;5.468;2023-05-01T16:03:20;17.90;99.90
13462;DHT22;6803;45.264;5.468;2023-05-01T16:05:51;17.50;99.90
13462;DHT22;6803;45.264;5.468;2023-05-01T16:08:23;17.60;99.90
13462;DHT22;6803;45.264;5.468;2023-05-01T16:10:54;16.90;99.90
13462;DHT22;6803;45.264;5.468;2023-05-01T16:13:26;16.40;99.90
13462;DHT22;6803;45.264;5.468;2023-05-01T16:15:57;15.90;99.90
13462;DHT22;6803;45.264;5.468;2023-05-01T16:18:28;15.60;99.90
13462;DHT22;6803;45.264;5.468;2023-05-01T16:20:58;15.70;99.90
13462;DHT22;6803;45.264;5.468;2023-05-01T16:23:29;15.30;99.90
13462;DHT22;6803;45.264;5.468;2023-05-01T16:26:00;15.20;99.90
13462;DHT22;6803;45.264;5.468;2023-05-01T16:28:31;15.00;99.90
13462;DHT22;6803;45.264;5.468;2023-05-01T16:31:03;14.80;99.90
13462;DHT22;6803;45.264;5.468;2023-05-01T16:36:15;15.10;99.90
13462;DHT22;6803;45.264;5.468;2023-05-01T16:38:46;15.40;99.90
13462;DHT22;6803;45.264;5.468;2023-05-01T16:41:18;15.50;99.90
13462;DHT22;6803;45.264;5.468;2023-05-01T16:43:49;15.30;99.90
13462;DHT22;6803;45.264;5.468;2023-05-01T16:46:20;15.30;99.90
13462;DHT22;6803;45.264;5.468;2023-05-01T16:51:27;15.20;99.90
13462;DHT22;6803;45.264;5.468;2023-05-01T16:53:58;15.10;99.90
13462;DHT22;6803;45.264;5.468;2023-05-01T16:56:28;15.00;99.90
13462;DHT22;6803;45.264;5.468;2023-05-01T16:58:59;15.00;99.90
13462;DHT22;6803;45.264;5.468;2023-05-01T17:01:30;14.90;99.90
13462;DHT22;6803;45.264;5.468;2023-05-01T17:04:00;14.90;99.90
13462;DHT22;6803;45.264;5.468;2023-05-01T17:06:31;14.90;99.90
13462;DHT22;6803;45.264;5.468;2023-05-01T17:09:02;14.80;99.90
13462;DHT22;6803;45.264;5.468;2023-05-01T17:11:33;14.50;99.90
13462;DHT22;6803;45.264;5.468;2023-05-01T17:14:03;14.70;99.90